sensor_id;sensor_type;location;lat;lon;timestamp;pressure;altitude;pressure_sealevel;temperature;humidity
19114;BME280;9689;51.052;13.772;2022-12-15T00:03:52;99183.06;;;-5.57;85.48
19114;BME280;9689;51.052;13.772;2022-12-15T00:09:10;99197.44;;;-5.57;85.88
19114;BME280;9689;51.052;13.772;2022-12-15T00:14:31;99197.28;;;-5.63;86.09
19114;BME280;9689;51.052;13.772;2022-12-15T00:19:49;99194.63;;;-5.68;86.04
19114;BME280;9689;51.052;13.772;2022-12-15T00:25:07;99191.16;;;-5.72;85.42
19114;BME280;9689;51.052;13.772;2022-12-15T00:30:27;99185.91;;;-5.78;85.46
19114;BME280;9689;51.052;13.772;2022-12-15T00:35:48;99185.84;;;-5.81;85.71
19114;BME280;9689;51.052;13.772;2022-12-15T00:41:07;99198.22;;;-5.91;85.53
19114;BME280;9689;51.052;13.772;2022-12-15T00:46:09;99198.09;;;-5.97;86.00
19114;BME280;9689;51.052;13.772;2022-12-15T00:51:28;99206.53;;;-5.99;85.27
19114;BME280;9689;51.052;13.772;2022-12-15T00:56:46;99212.53;;;-5.95;85.62
19114;BME280;9689;51.052;13.772;2022-12-15T01:02:06;99214.06;;;-6.00;85.63
19114;BME280;9689;51.052;13.772;2022-12-15T01:07:24;99227.47;;;-6.04;85.41
19114;BME280;9689;51.052;13.772;2022-12-15T01:12:48;99229.59;;;-6.18;85.46
19114;BME280;9689;51.052;13.772;2022-12-15T01:18:08;99238.78;;;-6.23;85.78
19114;BME280;9689;51.052;13.772;2022-12-15T01:23:26;99246.34;;;-6.24;85.05
19114;BME280;9689;51.052;13.772;2022-12-15T01:28:28;99246.19;;;-6.29;85.31
19114;BME280;9689;51.052;13.772;2022-12-15T01:33:30;99260.81;;;-6.20;84.96
19114;BME280;9689;51.052;13.772;2022-12-15T01:38:31;99269.41;;;-6.15;84.66
19114;BME280;9689;51.052;13.772;2022-12-15T01:43:34;99276.75;;;-5.96;84.53
19114;BME280;9689;51.052;13.772;2022-12-15T01:48:40;99271.91;;;-5.87;84.84
19114;BME280;9689;51.052;13.772;2022-12-15T01:53:45;99280.44;;;-5.83;84.29
19114;BME280;9689;51.052;13.772;2022-12-15T01:58:50;99286.59;;;-5.75;84.15
19114;BME280;9689;51.052;13.772;2022-12-15T02:03:54;99294.66;;;-5.60;84.71
19114;BME280;9689;51.052;13.772;2022-12-15T02:08:57;99305.19;;;-5.46;84.27
19114;BME280;9689;51.052;13.772;2022-12-15T02:14:01;99297.81;;;-5.38;83.97
19114;BME280;9689;51.052;13.772;2022-12-15T02:19:24;99295.66;;;-5.23;84.00
19114;BME280;9689;51.052;13.772;2022-12-15T02:24:46;99302.69;;;-5.13;83.80
19114;BME280;9689;51.052;13.772;2022-12-15T02:30:21;99306.44;;;-4.99;83.84
19114;BME280;9689;51.052;13.772;2022-12-15T02:35:28;99315.72;;;-5.01;83.57
19114;BME280;9689;51.052;13.772;2022-12-15T02:40:31;99311.44;;;-5.03;84.13
19114;BME280;9689;51.052;13.772;2022-12-15T02:45:41;99314.44;;;-5.17;83.79
19114;BME280;9689;51.052;13.772;2022-12-15T02:51:07;99310.13;;;-5.21;83.76
19114;BME280;9689;51.052;13.772;2022-12-15T02:56:16;99323.22;;;-5.37;84.14
19114;BME280;9689;51.052;13.772;2022-12-15T03:01:26;99328.88;;;-5.47;85.03
19114;BME280;9689;51.052;13.772;2022-12-15T03:06:30;99341.66;;;-5.43;84.42
19114;BME280;9689;51.052;13.772;2022-12-15T03:11:31;99341.84;;;-5.36;84.45
19114;BME280;9689;51.052;13.772;2022-12-15T03:16:33;99359.50;;;-5.40;83.98
19114;BME280;9689;51.052;13.772;2022-12-15T03:21:34;99362.00;;;-5.41;84.07
19114;BME280;9689;51.052;13.772;2022-12-15T03:26:35;99374.81;;;-5.38;83.72
19114;BME280;9689;51.052;13.772;2022-12-15T03:31:37;99375.50;;;-5.44;84.32
19114;BME280;9689;51.052;13.772;2022-12-15T03:36:38;99379.09;;;-5.35;83.95
19114;BME280;9689;51.052;13.772;2022-12-15T03:41:39;99382.44;;;-5.38;83.76
19114;BME280;9689;51.052;13.772;2022-12-15T03:46:41;99398.63;;;-5.33;84.01
19114;BME280;9689;51.052;13.772;2022-12-15T03:51:42;99396.88;;;-5.35;83.51
19114;BME280;9689;51.052;13.772;2022-12-15T03:56:43;99401.00;;;-5.39;83.58
19114;BME280;9689;51.052;13.772;2022-12-15T04:01:46;99399.88;;;-5.49;83.57
19114;BME280;9689;51.052;13.772;2022-12-15T04:06:47;99404.91;;;-5.50;83.22
19114;BME280;9689;51.052;13.772;2022-12-15T04:11:48;99414.78;;;-5.59;83.84
19114;BME280;9689;51.052;13.772;2022-12-15T04:16:50;99422.56;;;-5.55;83.25
19114;BME280;9689;51.052;13.772;2022-12-15T04:21:51;99440.75;;;-5.68;84.05
19114;BME280;9689;51.052;13.772;2022-12-15T04:26:53;99441.66;;;-5.66;84.06
19114;BME280;9689;51.052;13.772;2022-12-15T04:32:13;99447.38;;;-5.73;84.41
19114;BME280;9689;51.052;13.772;2022-12-15T04:37:31;99460.75;;;-5.77;83.92
19114;BME280;9689;51.052;13.772;2022-12-15T04:42:50;99470.63;;;-5.86;84.37
19114;BME280;9689;51.052;13.772;2022-12-15T04:48:10;99476.34;;;-5.93;84.10
19114;BME280;9689;51.052;13.772;2022-12-15T04:53:28;99484.47;;;-6.04;84.66
19114;BME280;9689;51.052;13.772;2022-12-15T04:58:46;99486.91;;;-6.07;84.45
19114;BME280;9689;51.052;13.772;2022-12-15T05:04:06;99493.59;;;-6.09;84.99
19114;BME280;9689;51.052;13.772;2022-12-15T05:09:25;99496.81;;;-6.14;84.43
19114;BME280;9689;51.052;13.772;2022-12-15T05:14:43;99502.53;;;-6.20;84.61
19114;BME280;9689;51.052;13.772;2022-12-15T05:20:04;99509.13;;;-6.25;85.29
19114;BME280;9689;51.052;13.772;2022-12-15T05:25:22;99520.06;;;-6.26;84.66
19114;BME280;9689;51.052;13.772;2022-12-15T05:30:41;99517.47;;;-6.28;84.23
19114;BME280;9689;51.052;13.772;2022-12-15T05:36:01;99523.56;;;-6.22;84.38
19114;BME280;9689;51.052;13.772;2022-12-15T05:41:01;99536.19;;;-6.24;83.65
19114;BME280;9689;51.052;13.772;2022-12-15T05:46:02;99535.66;;;-6.39;83.61
19114;BME280;9689;51.052;13.772;2022-12-15T05:51:07;99542.84;;;-6.51;83.90
19114;BME280;9689;51.052;13.772;2022-12-15T05:56:09;99554.47;;;-6.57;83.60
19114;BME280;9689;51.052;13.772;2022-12-15T06:01:12;99562.56;;;-6.67;83.29
19114;BME280;9689;51.052;13.772;2022-12-15T06:06:15;99564.28;;;-6.66;83.31
19114;BME280;9689;51.052;13.772;2022-12-15T06:11:18;99569.06;;;-6.73;83.56
19114;BME280;9689;51.052;13.772;2022-12-15T06:16:21;99576.38;;;-6.81;83.30
19114;BME280;9689;51.052;13.772;2022-12-15T06:21:26;99580.59;;;-6.81;84.03
19114;BME280;9689;51.052;13.772;2022-12-15T06:26:29;99588.66;;;-6.92;84.18
19114;BME280;9689;51.052;13.772;2022-12-15T06:31:31;99591.22;;;-6.90;84.01
19114;BME280;9689;51.052;13.772;2022-12-15T06:36:34;99604.59;;;-6.94;83.26
19114;BME280;9689;51.052;13.772;2022-12-15T06:41:34;99612.81;;;-7.00;84.41
19114;BME280;9689;51.052;13.772;2022-12-15T06:46:39;99621.28;;;-6.99;84.39
19114;BME280;9689;51.052;13.772;2022-12-15T06:51:49;99625.72;;;-6.94;84.36
19114;BME280;9689;51.052;13.772;2022-12-15T06:56:50;99634.28;;;-6.90;83.84
19114;BME280;9689;51.052;13.772;2022-12-15T07:01:51;99636.16;;;-6.86;84.19
19114;BME280;9689;51.052;13.772;2022-12-15T07:06:53;99638.56;;;-6.67;83.77
19114;BME280;9689;51.052;13.772;2022-12-15T07:11:55;99639.75;;;-6.79;83.27
19114;BME280;9689;51.052;13.772;2022-12-15T07:16:56;99656.56;;;-6.81;83.92
19114;BME280;9689;51.052;13.772;2022-12-15T07:21:58;99654.53;;;-6.90;83.47
19114;BME280;9689;51.052;13.772;2022-12-15T07:27:00;99665.53;;;-6.90;83.53
19114;BME280;9689;51.052;13.772;2022-12-15T07:32:01;99684.94;;;-6.90;83.37
19114;BME280;9689;51.052;13.772;2022-12-15T07:37:03;99687.66;;;-6.86;83.31
19114;BME280;9689;51.052;13.772;2022-12-15T07:42:04;99681.44;;;-6.94;82.55
19114;BME280;9689;51.052;13.772;2022-12-15T07:47:05;99690.91;;;-6.88;81.53
19114;BME280;9689;51.052;13.772;2022-12-15T07:52:07;99708.69;;;-6.87;81.31
19114;BME280;9689;51.052;13.772;2022-12-15T07:57:08;99701.41;;;-6.79;80.41
19114;BME280;9689;51.052;13.772;2022-12-15T08:02:09;99705.44;;;-6.84;80.63
19114;BME280;9689;51.052;13.772;2022-12-15T08:07:15;99707.13;;;-6.62;84.47
19114;BME280;9689;51.052;13.772;2022-12-15T08:12:19;99696.78;;;-4.74;87.55
19114;BME280;9689;51.052;13.772;2022-12-15T08:17:20;99701.28;;;-5.18;79.87
19114;BME280;9689;51.052;13.772;2022-12-15T08:22:23;99714.28;;;-6.07;78.70
19114;BME280;9689;51.052;13.772;2022-12-15T08:27:23;99711.38;;;-6.40;79.03
19114;BME280;9689;51.052;13.772;2022-12-15T08:32:25;99721.84;;;-6.31;79.14
19114;BME280;9689;51.052;13.772;2022-12-15T08:37:27;99733.41;;;-6.38;78.59
19114;BME280;9689;51.052;13.772;2022-12-15T08:42:31;99728.75;;;-6.49;78.82
19114;BME280;9689;51.052;13.772;2022-12-15T08:47:32;99746.44;;;-6.51;79.28
19114;BME280;9689;51.052;13.772;2022-12-15T08:52:35;99738.44;;;-6.39;78.79
19114;BME280;9689;51.052;13.772;2022-12-15T08:58:00;99747.88;;;-6.35;78.87
19114;BME280;9689;51.052;13.772;2022-12-15T09:03:01;99739.22;;;-6.18;79.27
19114;BME280;9689;51.052;13.772;2022-12-15T09:08:05;99734.50;;;-6.09;78.81
19114;BME280;9689;51.052;13.772;2022-12-15T09:13:05;99737.38;;;-6.00;78.90
19114;BME280;9689;51.052;13.772;2022-12-15T09:18:06;99736.75;;;-5.94;78.74
19114;BME280;9689;51.052;13.772;2022-12-15T09:23:09;99749.31;;;-5.73;78.23
19114;BME280;9689;51.052;13.772;2022-12-15T09:28:10;99746.41;;;-5.60;77.65
19114;BME280;9689;51.052;13.772;2022-12-15T09:33:10;99753.25;;;-5.57;76.93
19114;BME280;9689;51.052;13.772;2022-12-15T09:38:13;99748.06;;;-5.60;77.58
19114;BME280;9689;51.052;13.772;2022-12-15T09:43:18;99752.59;;;-5.52;77.61
19114;BME280;9689;51.052;13.772;2022-12-15T09:48:48;99750.47;;;-5.40;77.18
19114;BME280;9689;51.052;13.772;2022-12-15T09:53:52;99750.56;;;-5.38;76.88
19114;BME280;9689;51.052;13.772;2022-12-15T09:58:59;99764.47;;;-5.27;77.55
19114;BME280;9689;51.052;13.772;2022-12-15T10:04:06;99765.69;;;-5.16;76.09
19114;BME280;9689;51.052;13.772;2022-12-15T10:09:17;99753.97;;;-5.12;76.04
19114;BME280;9689;51.052;13.772;2022-12-15T10:14:26;99764.63;;;-4.97;76.04
19114;BME280;9689;51.052;13.772;2022-12-15T10:19:36;99768.97;;;-4.42;75.45
19114;BME280;9689;51.052;13.772;2022-12-15T10:24:40;99774.16;;;-4.10;73.29
19114;BME280;9689;51.052;13.772;2022-12-15T10:30:02;99769.56;;;-3.93;72.17
19114;BME280;9689;51.052;13.772;2022-12-15T10:35:07;99778.09;;;-3.91;71.85
19114;BME280;9689;51.052;13.772;2022-12-15T10:40:24;99777.66;;;-3.78;71.51
19114;BME280;9689;51.052;13.772;2022-12-15T10:45:40;99783.22;;;-3.61;71.05
19114;BME280;9689;51.052;13.772;2022-12-15T10:50:41;99790.44;;;-3.47;70.19
19114;BME280;9689;51.052;13.772;2022-12-15T10:55:43;99790.59;;;-3.41;69.61
19114;BME280;9689;51.052;13.772;2022-12-15T11:01:06;99786.91;;;-3.50;70.09
19114;BME280;9689;51.052;13.772;2022-12-15T11:06:12;99783.31;;;-3.27;69.96
19114;BME280;9689;51.052;13.772;2022-12-15T11:11:28;99777.91;;;-3.06;68.93
19114;BME280;9689;51.052;13.772;2022-12-15T11:16:51;99775.06;;;-2.85;68.99
19114;BME280;9689;51.052;13.772;2022-12-15T11:21:56;99785.28;;;-2.85;68.90
19114;BME280;9689;51.052;13.772;2022-12-15T11:27:05;99778.53;;;-2.83;68.77
19114;BME280;9689;51.052;13.772;2022-12-15T11:32:10;99776.41;;;-2.65;68.92
19114;BME280;9689;51.052;13.772;2022-12-15T11:37:38;99771.56;;;-2.54;68.72
19114;BME280;9689;51.052;13.772;2022-12-15T11:42:48;99770.19;;;-2.41;68.56
19114;BME280;9689;51.052;13.772;2022-12-15T11:48:01;99767.66;;;-2.40;68.77
19114;BME280;9689;51.052;13.772;2022-12-15T11:53:15;99765.28;;;-2.32;68.75
19114;BME280;9689;51.052;13.772;2022-12-15T11:58:44;99763.88;;;-2.18;68.29
19114;BME280;9689;51.052;13.772;2022-12-15T12:03:57;99764.09;;;-2.09;68.19
19114;BME280;9689;51.052;13.772;2022-12-15T12:09:12;99765.19;;;-1.99;67.93
19114;BME280;9689;51.052;13.772;2022-12-15T12:14:26;99758.00;;;-2.15;68.11
19114;BME280;9689;51.052;13.772;2022-12-15T12:19:33;99743.16;;;-2.33;68.71
19114;BME280;9689;51.052;13.772;2022-12-15T12:24:39;99730.91;;;-2.48;69.18
19114;BME280;9689;51.052;13.772;2022-12-15T12:29:51;99734.03;;;-2.60;69.57
19114;BME280;9689;51.052;13.772;2022-12-15T12:35:01;99735.34;;;-2.39;69.71
19114;BME280;9689;51.052;13.772;2022-12-15T12:40:29;99739.09;;;-2.25;69.99
19114;BME280;9689;51.052;13.772;2022-12-15T12:45:38;99742.50;;;-2.24;68.62
19114;BME280;9689;51.052;13.772;2022-12-15T12:50:45;99744.94;;;-2.29;68.71
19114;BME280;9689;51.052;13.772;2022-12-15T12:55:49;99747.31;;;-2.37;68.94
19114;BME280;9689;51.052;13.772;2022-12-15T13:06:54;99747.97;;;-2.08;68.90
19114;BME280;9689;51.052;13.772;2022-12-15T13:11:57;99736.75;;;-2.14;68.68
19114;BME280;9689;51.052;13.772;2022-12-15T13:17:28;99740.44;;;-2.02;69.06
19114;BME280;9689;51.052;13.772;2022-12-15T13:22:31;99742.31;;;-1.93;68.23
19114;BME280;9689;51.052;13.772;2022-12-15T13:27:34;99739.66;;;-1.99;68.89
19114;BME280;9689;51.052;13.772;2022-12-15T13:32:40;99731.00;;;-2.06;68.63
19114;BME280;9689;51.052;13.772;2022-12-15T13:37:47;99727.63;;;-2.03;68.64
19114;BME280;9689;51.052;13.772;2022-12-15T13:42:55;99740.31;;;-2.08;69.06
19114;BME280;9689;51.052;13.772;2022-12-15T13:47:59;99754.66;;;-2.13;69.21
19114;BME280;9689;51.052;13.772;2022-12-15T13:53:01;99750.63;;;-2.02;68.49
19114;BME280;9689;51.052;13.772;2022-12-15T13:58:19;99755.28;;;-1.84;68.51
19114;BME280;9689;51.052;13.772;2022-12-15T14:03:23;99764.59;;;-1.86;68.51
19114;BME280;9689;51.052;13.772;2022-12-15T14:08:26;99768.75;;;-1.91;72.64
19114;BME280;9689;51.052;13.772;2022-12-15T14:13:33;99776.09;;;-2.06;71.18
19114;BME280;9689;51.052;13.772;2022-12-15T14:18:37;99773.56;;;-2.05;70.97
19114;BME280;9689;51.052;13.772;2022-12-15T14:23:41;99762.06;;;-2.25;71.07
19114;BME280;9689;51.052;13.772;2022-12-15T14:29:05;99766.41;;;-2.57;71.48
19114;BME280;9689;51.052;13.772;2022-12-15T14:34:11;99763.25;;;-2.45;72.28
19114;BME280;9689;51.052;13.772;2022-12-15T14:39:18;99762.16;;;-2.57;73.24
19114;BME280;9689;51.052;13.772;2022-12-15T14:44:28;99772.28;;;-2.94;73.49
19114;BME280;9689;51.052;13.772;2022-12-15T14:49:39;99773.63;;;-3.08;74.16
19114;BME280;9689;51.052;13.772;2022-12-15T14:54:49;99775.53;;;-3.31;75.18
19114;BME280;9689;51.052;13.772;2022-12-15T14:59:56;99774.41;;;-3.43;75.73
19114;BME280;9689;51.052;13.772;2022-12-15T15:04:59;99770.50;;;-3.61;76.56
19114;BME280;9689;51.052;13.772;2022-12-15T15:10:15;99764.31;;;-3.70;76.86
19114;BME280;9689;51.052;13.772;2022-12-15T15:15:24;99761.38;;;-3.83;78.02
19114;BME280;9689;51.052;13.772;2022-12-15T15:20:28;99761.94;;;-3.93;78.56
19114;BME280;9689;51.052;13.772;2022-12-15T15:25:34;99761.88;;;-3.95;78.54
19114;BME280;9689;51.052;13.772;2022-12-15T15:30:42;99766.50;;;-4.10;79.98
19114;BME280;9689;51.052;13.772;2022-12-15T15:35:48;99759.63;;;-4.14;79.50
19114;BME280;9689;51.052;13.772;2022-12-15T15:46:18;99762.44;;;-4.34;79.79
19114;BME280;9689;51.052;13.772;2022-12-15T15:51:22;99760.41;;;-4.44;80.47
19114;BME280;9689;51.052;13.772;2022-12-15T15:56:25;99753.25;;;-4.29;80.69
19114;BME280;9689;51.052;13.772;2022-12-15T16:01:26;99765.69;;;-4.38;80.11
19114;BME280;9689;51.052;13.772;2022-12-15T16:06:29;99777.41;;;-4.43;80.84
19114;BME280;9689;51.052;13.772;2022-12-15T16:11:30;99789.16;;;-4.46;81.10
19114;BME280;9689;51.052;13.772;2022-12-15T16:16:31;99791.31;;;-4.59;81.38
19114;BME280;9689;51.052;13.772;2022-12-15T16:21:34;99787.22;;;-4.53;81.45
19114;BME280;9689;51.052;13.772;2022-12-15T16:26:36;99798.81;;;-4.62;81.21
19114;BME280;9689;51.052;13.772;2022-12-15T16:31:37;99812.25;;;-4.66;81.35
19114;BME280;9689;51.052;13.772;2022-12-15T16:36:45;99806.31;;;-4.66;81.39
19114;BME280;9689;51.052;13.772;2022-12-15T16:41:46;99799.47;;;-4.69;81.33
19114;BME280;9689;51.052;13.772;2022-12-15T16:46:46;99811.97;;;-4.75;81.18
19114;BME280;9689;51.052;13.772;2022-12-15T16:51:51;99828.75;;;-4.78;81.26
19114;BME280;9689;51.052;13.772;2022-12-15T16:56:53;99830.34;;;-4.82;81.73
19114;BME280;9689;51.052;13.772;2022-12-15T17:01:56;99830.25;;;-4.85;81.64
19114;BME280;9689;51.052;13.772;2022-12-15T17:06:58;99829.31;;;-4.87;81.54
19114;BME280;9689;51.052;13.772;2022-12-15T17:12:00;99822.47;;;-4.64;82.53
19114;BME280;9689;51.052;13.772;2022-12-15T17:17:01;99824.50;;;-4.79;81.82
19114;BME280;9689;51.052;13.772;2022-12-15T17:22:03;99833.22;;;-4.97;82.00
19114;BME280;9689;51.052;13.772;2022-12-15T17:27:04;99836.94;;;-4.87;84.35
19114;BME280;9689;51.052;13.772;2022-12-15T17:32:09;99830.41;;;-4.01;88.04
19114;BME280;9689;51.052;13.772;2022-12-15T17:37:12;99824.00;;;-4.95;84.73
19114;BME280;9689;51.052;13.772;2022-12-15T17:42:16;99822.97;;;-5.00;84.58
19114;BME280;9689;51.052;13.772;2022-12-15T17:47:18;99819.34;;;-5.06;83.52
19114;BME280;9689;51.052;13.772;2022-12-15T17:52:25;99823.66;;;-5.04;83.32
19114;BME280;9689;51.052;13.772;2022-12-15T17:57:28;99825.34;;;-5.04;83.35
19114;BME280;9689;51.052;13.772;2022-12-15T18:02:30;99828.06;;;-5.00;83.32
19114;BME280;9689;51.052;13.772;2022-12-15T18:07:33;99817.94;;;-4.98;82.96
19114;BME280;9689;51.052;13.772;2022-12-15T18:12:34;99809.53;;;-4.96;82.53
19114;BME280;9689;51.052;13.772;2022-12-15T18:17:35;99797.72;;;-4.95;81.92
19114;BME280;9689;51.052;13.772;2022-12-15T18:22:37;99801.03;;;-4.98;82.14
19114;BME280;9689;51.052;13.772;2022-12-15T18:27:38;99807.28;;;-4.88;82.23
19114;BME280;9689;51.052;13.772;2022-12-15T18:32:39;99813.38;;;-4.83;81.79
19114;BME280;9689;51.052;13.772;2022-12-15T18:37:42;99821.06;;;-4.81;81.59
19114;BME280;9689;51.052;13.772;2022-12-15T18:42:44;99827.09;;;-4.78;81.73
19114;BME280;9689;51.052;13.772;2022-12-15T18:47:45;99825.47;;;-4.76;81.23
19114;BME280;9689;51.052;13.772;2022-12-15T18:52:58;99827.25;;;-4.73;81.00
19114;BME280;9689;51.052;13.772;2022-12-15T18:57:59;99820.59;;;-4.70;81.15
19114;BME280;9689;51.052;13.772;2022-12-15T19:03:00;99817.19;;;-4.70;81.05
19114;BME280;9689;51.052;13.772;2022-12-15T19:08:05;99811.97;;;-4.75;81.00
19114;BME280;9689;51.052;13.772;2022-12-15T19:13:11;99808.84;;;-4.66;81.28
19114;BME280;9689;51.052;13.772;2022-12-15T19:18:13;99806.28;;;-4.68;81.33
19114;BME280;9689;51.052;13.772;2022-12-15T19:23:33;99802.75;;;-4.71;81.06
19114;BME280;9689;51.052;13.772;2022-12-15T19:28:34;99802.88;;;-4.68;81.33
19114;BME280;9689;51.052;13.772;2022-12-15T19:33:35;99804.69;;;-4.64;81.27
19114;BME280;9689;51.052;13.772;2022-12-15T19:38:37;99819.31;;;-4.57;81.30
19114;BME280;9689;51.052;13.772;2022-12-15T19:43:38;99811.75;;;-4.56;80.86
19114;BME280;9689;51.052;13.772;2022-12-15T19:48:39;99808.50;;;-4.51;81.09
19114;BME280;9689;51.052;13.772;2022-12-15T19:53:42;99807.75;;;-4.47;81.10
19114;BME280;9689;51.052;13.772;2022-12-15T19:58:44;99794.22;;;-4.46;80.97
19114;BME280;9689;51.052;13.772;2022-12-15T20:03:46;99798.31;;;-4.51;81.59
19114;BME280;9689;51.052;13.772;2022-12-15T20:08:50;99797.03;;;-4.39;81.46
19114;BME280;9689;51.052;13.772;2022-12-15T20:13:53;99794.47;;;-4.39;81.15
19114;BME280;9689;51.052;13.772;2022-12-15T20:18:54;99794.53;;;-4.37;81.17
19114;BME280;9689;51.052;13.772;2022-12-15T20:23:58;99786.13;;;-4.35;81.31
19114;BME280;9689;51.052;13.772;2022-12-15T20:29:00;99796.38;;;-4.33;81.11
19114;BME280;9689;51.052;13.772;2022-12-15T20:34:01;99770.09;;;-4.32;81.29
19114;BME280;9689;51.052;13.772;2022-12-15T20:39:12;99768.31;;;-4.35;81.41
19114;BME280;9689;51.052;13.772;2022-12-15T20:44:17;99754.84;;;-4.32;81.50
19114;BME280;9689;51.052;13.772;2022-12-15T20:49:19;99740.28;;;-4.36;81.69
19114;BME280;9689;51.052;13.772;2022-12-15T20:54:23;99737.59;;;-4.42;81.54
19114;BME280;9689;51.052;13.772;2022-12-15T20:59:23;99734.31;;;-4.38;81.53
19114;BME280;9689;51.052;13.772;2022-12-15T21:04:26;99717.56;;;-4.32;81.64
19114;BME280;9689;51.052;13.772;2022-12-15T21:09:29;99717.28;;;-4.41;81.36
19114;BME280;9689;51.052;13.772;2022-12-15T21:14:30;99724.06;;;-4.41;81.39
19114;BME280;9689;51.052;13.772;2022-12-15T21:19:31;99716.63;;;-4.62;82.15
19114;BME280;9689;51.052;13.772;2022-12-15T21:24:33;99718.63;;;-4.52;81.69
19114;BME280;9689;51.052;13.772;2022-12-15T21:29:34;99706.44;;;-4.62;81.69
19114;BME280;9689;51.052;13.772;2022-12-15T21:34:35;99722.25;;;-4.44;81.83
19114;BME280;9689;51.052;13.772;2022-12-15T21:39:38;99714.28;;;-4.28;81.54
19114;BME280;9689;51.052;13.772;2022-12-15T21:44:38;99710.88;;;-4.28;81.46
19114;BME280;9689;51.052;13.772;2022-12-15T21:49:40;99703.44;;;-4.22;81.59
19114;BME280;9689;51.052;13.772;2022-12-15T21:54:42;99712.09;;;-4.15;81.64
19114;BME280;9689;51.052;13.772;2022-12-15T21:59:43;99698.31;;;-4.23;81.35
19114;BME280;9689;51.052;13.772;2022-12-15T22:04:43;99708.53;;;-4.22;81.96
19114;BME280;9689;51.052;13.772;2022-12-15T22:09:47;99707.78;;;-4.18;81.69
19114;BME280;9689;51.052;13.772;2022-12-15T22:14:49;99724.56;;;-4.24;81.26
19114;BME280;9689;51.052;13.772;2022-12-15T22:19:50;99723.69;;;-4.25;81.70
19114;BME280;9689;51.052;13.772;2022-12-15T22:24:52;99730.59;;;-4.21;81.59
19114;BME280;9689;51.052;13.772;2022-12-15T22:29:53;99729.38;;;-4.34;81.75
19114;BME280;9689;51.052;13.772;2022-12-15T22:34:55;99721.66;;;-4.35;82.22
19114;BME280;9689;51.052;13.772;2022-12-15T22:39:57;99724.69;;;-4.20;81.63
19114;BME280;9689;51.052;13.772;2022-12-15T22:44:57;99731.53;;;-4.17;81.39
19114;BME280;9689;51.052;13.772;2022-12-15T22:49:58;99736.97;;;-4.07;81.55
19114;BME280;9689;51.052;13.772;2022-12-15T22:55:01;99741.00;;;-4.13;81.60
19114;BME280;9689;51.052;13.772;2022-12-15T23:00:04;99731.03;;;-4.06;81.47
19114;BME280;9689;51.052;13.772;2022-12-15T23:05:07;99738.38;;;-4.16;81.65
19114;BME280;9689;51.052;13.772;2022-12-15T23:10:11;99747.88;;;-4.09;82.20
19114;BME280;9689;51.052;13.772;2022-12-15T23:15:30;99758.75;;;-4.15;81.99
19114;BME280;9689;51.052;13.772;2022-12-15T23:20:50;99743.72;;;-4.07;81.90
19114;BME280;9689;51.052;13.772;2022-12-15T23:25:52;99726.03;;;-4.03;81.47
19114;BME280;9689;51.052;13.772;2022-12-15T23:30:54;99712.53;;;-4.00;81.53
19114;BME280;9689;51.052;13.772;2022-12-15T23:35:56;99701.72;;;-3.93;80.98
19114;BME280;9689;51.052;13.772;2022-12-15T23:40:58;99700.88;;;-3.92;80.81
19114;BME280;9689;51.052;13.772;2022-12-15T23:46:00;99703.56;;;-3.87;81.01
19114;BME280;9689;51.052;13.772;2022-12-15T23:51:05;99706.13;;;-3.87;81.27
19114;BME280;9689;51.052;13.772;2022-12-15T23:56:10;99711.94;;;-3.91;81.56
